Time;durP1;ratioP1;P1;durP2;ratioP2;P2;SDS_P1;SDS_P2;PMS_P1;PMS_P2;Temp;Humidity;BMP_temperature;BMP_pressure;BME280_temperature;BME280_humidity;BME280_pressure;Samples;Min_cycle;Max_cycle;Signal;HPM_P1;HPM_P2
2023/04/03 00:01:38;;;;;;;1.70;1.60;;;;;;;14.31;66.11;100607.67;110312;1277;22166;-52
2023/04/03 00:04:19;;;;;;;1.50;1.40;;;;;;;14.31;66.15;100611.85;110126;1271;22413;-53
2023/04/03 00:06:48;;;;;;;2.00;1.80;;;;;;;14.31;66.17;100613.25;110330;1270;22447;-52
2023/04/03 00:09:19;;;;;;;1.70;1.60;;;;;;;14.32;66.21;100616.02;109812;1268;241282;-52
2023/04/03 00:11:47;;;;;;;1.60;1.50;;;;;;;14.33;66.20;100616.48;110360;1278;22273;-52
2023/04/03 00:14:15;;;;;;;1.90;1.80;;;;;;;14.34;66.29;100624.13;110322;1270;22097;-52
2023/04/03 00:16:56;;;;;;;2.00;1.90;;;;;;;14.34;66.24;100621.32;110335;1277;22110;-52
2023/04/03 00:19:27;;;;;;;1.70;1.60;;;;;;;14.36;66.29;100628.06;110124;1272;22240;-53
2023/04/03 00:21:55;;;;;;;1.90;1.80;;;;;;;14.36;66.38;100630.67;110331;1277;22229;-52
2023/04/03 00:24:23;;;;;;;2.20;2.10;;;;;;;14.38;66.32;100632.71;110334;1275;22881;-52
2023/04/03 00:26:57;;;;;;;2.80;2.40;;;;;;;14.39;66.27;100631.45;110354;1271;22429;-52
2023/04/03 00:29:27;;;;;;;2.20;2.00;;;;;;;14.41;66.34;100631.55;110352;1270;22385;-52
2023/04/03 00:31:55;;;;;;;2.40;2.20;;;;;;;14.42;66.21;100638.63;110347;1270;22360;-53
2023/04/03 00:34:24;;;;;;;2.50;2.30;;;;;;;14.44;66.25;100641.20;110325;1277;22808;-52
2023/04/03 00:36:54;;;;;;;2.40;2.20;;;;;;;14.45;66.22;100641.50;110323;1277;22122;-53
2023/04/03 00:39:22;;;;;;;2.20;2.10;;;;;;;14.46;66.17;100641.81;110366;1270;22366;-53
2023/04/03 00:41:54;;;;;;;2.80;2.40;;;;;;;14.47;66.12;100645.27;110319;1272;22357;-52
2023/04/03 00:44:43;;;;;;;2.50;2.30;;;;;;;14.47;66.21;100643.84;110127;1272;22931;-53
2023/04/03 00:47:13;;;;;;;2.80;2.60;;;;;;;14.49;66.16;100642.91;110339;1277;22287;-53
2023/04/03 00:49:41;;;;;;;2.50;2.30;;;;;;;14.49;66.15;100643.44;110025;1277;22260;-53
2023/04/03 00:52:15;;;;;;;2.90;2.70;;;;;;;14.49;66.00;100643.24;110342;1270;22768;-53
2023/04/03 00:54:44;;;;;;;2.30;2.20;;;;;;;14.49;66.04;100641.50;110316;1270;22305;-52
2023/04/03 00:57:12;;;;;;;2.50;2.30;;;;;;;14.50;66.09;100641.12;110189;1272;22135;-52
2023/04/03 00:59:44;;;;;;;3.10;2.50;;;;;;;14.51;65.98;100641.77;110077;1274;22413;-53
2023/04/03 01:02:12;;;;;;;3.00;2.70;;;;;;;14.52;65.99;100638.23;110265;1277;22067;-53
2023/04/03 01:04:42;;;;;;;2.70;2.50;;;;;;;14.53;65.84;100638.55;110105;1278;22150;-52
2023/04/03 01:07:12;;;;;;;2.70;2.30;;;;;;;14.52;65.71;100641.55;110348;1277;22860;-52
2023/04/03 01:09:41;;;;;;;2.20;2.10;;;;;;;14.52;65.73;100636.31;110342;1270;22199;-52
2023/04/03 01:12:17;;;;;;;2.50;2.30;;;;;;;14.52;65.78;100640.54;110346;1278;22151;-52
2023/04/03 01:14:52;;;;;;;2.80;2.60;;;;;;;14.52;65.69;100642.98;110303;1275;22880;-52
2023/04/03 01:17:24;;;;;;;2.60;2.40;;;;;;;14.51;65.68;100640.20;110305;1277;22179;-53
2023/04/03 01:20:19;;;;;;;2.20;2.10;;;;;;;14.51;65.54;100642.84;110334;1278;22205;-53
2023/04/03 01:23:10;;;;;;;2.20;2.10;;;;;;;14.49;65.53;100639.95;109994;1281;22310;-53
2023/04/03 01:25:44;;;;;;;2.10;1.90;;;;;;;14.47;65.46;100635.66;109934;1273;22895;-52
2023/04/03 01:28:29;;;;;;;2.10;2.00;;;;;;;14.44;65.56;100636.48;109852;1281;22190;-54
2023/04/03 01:31:22;;;;;;;2.40;2.20;;;;;;;14.42;65.59;100639.02;109996;1281;22315;-52
2023/04/03 01:33:50;;;;;;;1.80;1.70;;;;;;;14.41;65.54;100639.59;110003;1281;22919;-52
2023/04/03 01:36:24;;;;;;;2.30;2.10;;;;;;;14.39;65.61;100641.56;109898;1276;22947;-52
2023/04/03 01:38:52;;;;;;;2.30;2.10;;;;;;;14.39;65.72;100644.19;109877;1276;22390;-53
2023/04/03 01:41:21;;;;;;;2.40;2.20;;;;;;;14.39;65.71;100644.52;109166;1283;1002287;-52
2023/04/03 01:43:50;;;;;;;2.40;2.10;;;;;;;14.40;65.71;100650.06;109910;1284;22276;-52
2023/04/03 01:46:18;;;;;;;2.60;2.40;;;;;;;14.41;65.68;100649.35;109916;1283;22177;-53
2023/04/03 01:48:47;;;;;;;2.50;2.30;;;;;;;14.41;65.62;100652.29;109826;1278;22949;-52
2023/04/03 01:51:16;;;;;;;2.00;1.90;;;;;;;14.41;65.56;100653.52;109085;1279;1003035;-52
2023/04/03 01:53:44;;;;;;;2.30;2.10;;;;;;;14.40;65.46;100655.48;109917;1277;22901;-52
2023/04/03 01:56:14;;;;;;;2.40;2.20;;;;;;;14.40;65.49;100657.05;109848;1278;22372;-51
2023/04/03 01:58:42;;;;;;;2.30;2.10;;;;;;;14.40;65.43;100660.54;109910;1276;22262;-52
2023/04/03 02:01:11;;;;;;;2.40;2.20;;;;;;;14.41;65.38;100667.50;110012;1274;22172;-52
2023/04/03 02:03:40;;;;;;;2.10;1.90;;;;;;;14.41;65.33;100668.88;110005;1273;23175;-52
2023/04/03 02:06:08;;;;;;;2.10;1.90;;;;;;;14.41;65.34;100666.95;110024;1280;23068;-52
2023/04/03 02:08:41;;;;;;;2.00;1.90;;;;;;;14.41;65.40;100672.02;110322;1271;22983;-52
2023/04/03 02:11:10;;;;;;;2.30;2.10;;;;;;;14.42;65.26;100673.92;110119;1270;22350;-51
2023/04/03 02:13:38;;;;;;;2.00;1.90;;;;;;;14.42;65.25;100671.45;110237;1270;22386;-52
2023/04/03 02:16:09;;;;;;;2.20;2.00;;;;;;;14.43;65.20;100677.17;110100;1273;22155;-51
2023/04/03 02:18:38;;;;;;;2.00;1.90;;;;;;;14.42;65.26;100679.14;110163;1272;22423;-53
2023/04/03 02:21:07;;;;;;;2.80;2.60;;;;;;;14.43;65.18;100678.23;110020;1279;22176;-52
2023/04/03 02:23:36;;;;;;;2.30;2.10;;;;;;;14.42;65.08;100676.02;110089;1279;22985;-52
2023/04/03 02:26:12;;;;;;;1.80;1.70;;;;;;;14.41;65.05;100680.40;110096;1273;22152;-51
2023/04/03 02:28:42;;;;;;;2.00;1.90;;;;;;;14.40;65.04;100683.06;110105;1272;22187;-51
2023/04/03 02:31:10;;;;;;;2.40;2.10;;;;;;;14.40;65.09;100688.66;110034;1279;22149;-51
2023/04/03 02:33:39;;;;;;;2.60;2.20;;;;;;;14.40;65.05;100688.66;109977;1275;22307;-51
2023/04/03 02:36:09;;;;;;;2.20;2.00;;;;;;;14.40;64.98;100692.83;109799;1282;22157;-52
2023/04/03 02:38:39;;;;;;;2.40;2.30;;;;;;;14.40;64.91;100696.33;109940;1276;22810;-51
2023/04/03 02:41:10;;;;;;;2.10;2.00;;;;;;;14.40;64.91;100698.42;109987;1275;22159;-52
2023/04/03 02:43:39;;;;;;;1.70;1.60;;;;;;;14.40;64.84;100700.88;109842;1278;22175;-51
2023/04/03 02:46:07;;;;;;;2.10;1.90;;;;;;;14.39;64.75;100705.96;109847;1279;22197;-51
2023/04/03 02:48:36;;;;;;;2.30;2.10;;;;;;;14.38;64.73;100704.61;110052;1274;22252;-51
2023/04/03 02:51:04;;;;;;;2.30;2.10;;;;;;;14.36;64.82;100708.50;110036;1280;22194;-51
2023/04/03 02:53:34;;;;;;;2.80;2.10;;;;;;;14.36;64.70;100710.10;109943;1280;22394;-52
2023/04/03 02:56:08;;;;;;;2.10;1.90;;;;;;;14.35;64.56;100713.79;110021;1281;22419;-53
2023/04/03 02:58:36;;;;;;;1.90;1.80;;;;;;;14.34;64.56;100709.81;110033;1274;22555;-51
2023/04/03 03:01:06;;;;;;;2.30;2.10;;;;;;;14.32;64.57;100711.27;109983;1280;23054;-51
2023/04/03 03:03:35;;;;;;;2.10;1.90;;;;;;;14.32;64.53;100711.66;110047;1280;22205;-51
2023/04/03 03:06:05;;;;;;;2.30;1.60;;;;;;;14.31;64.41;100717.44;110302;1270;22180;-51
2023/04/03 03:08:35;;;;;;;1.90;1.80;;;;;;;14.29;64.37;100714.89;110318;1272;22212;-51
2023/04/03 03:11:04;;;;;;;1.60;1.50;;;;;;;14.28;64.36;100721.89;110350;1270;22294;-51
2023/04/03 03:13:33;;;;;;;1.80;1.70;;;;;;;14.27;64.18;100723.14;109523;1277;1002724;-52
2023/04/03 03:16:02;;;;;;;1.90;1.80;;;;;;;14.26;64.17;100730.48;110336;1272;22963;-51
2023/04/03 03:18:30;;;;;;;3.00;2.30;;;;;;;14.24;64.09;100731.09;110356;1272;22344;-51
2023/04/03 03:21:06;;;;;;;2.30;2.10;;;;;;;14.23;64.12;100732.03;110179;1271;22993;-51
2023/04/03 03:23:36;;;;;;;2.00;1.80;;;;;;;14.21;64.09;100729.65;110387;1277;23065;-51
2023/04/03 03:26:06;;;;;;;1.80;1.70;;;;;;;14.19;64.07;100731.98;110344;1271;22287;-51
2023/04/03 03:28:38;;;;;;;2.00;1.60;;;;;;;14.18;64.00;100729.41;110332;1271;22121;-51
2023/04/03 03:31:10;;;;;;;1.70;1.60;;;;;;;14.18;64.01;100735.36;110334;1277;22281;-51
2023/04/03 03:33:39;;;;;;;2.20;2.00;;;;;;;14.16;64.04;100738.73;110104;1275;22192;-51
2023/04/03 03:36:07;;;;;;;2.40;1.90;;;;;;;14.15;64.10;100744.17;110376;1270;22515;-51
2023/04/03 03:38:37;;;;;;;1.70;1.60;;;;;;;14.14;63.96;100745.09;110385;1269;22472;-51
2023/04/03 03:41:05;;;;;;;2.20;2.00;;;;;;;14.13;63.86;100751.06;110258;1271;22099;-51
2023/04/03 03:43:39;;;;;;;2.30;1.90;;;;;;;14.11;63.85;100751.83;110149;1278;22318;-51
2023/04/03 03:46:07;;;;;;;2.40;2.20;;;;;;;14.20;63.53;100749.04;110250;1272;22358;-51
2023/04/03 03:48:35;;;;;;;2.20;2.00;;;;;;;14.24;63.40;100748.54;110056;1277;22152;-51
2023/04/03 03:51:04;;;;;;;2.40;2.20;;;;;;;14.24;63.53;100751.14;110087;1276;22225;-51
2023/04/03 03:53:35;;;;;;;2.40;2.00;;;;;;;14.24;63.39;100751.70;109954;1276;22419;-51
2023/04/03 03:56:06;;;;;;;2.30;2.10;;;;;;;14.19;63.46;100754.84;109978;1275;23066;-51
2023/04/03 03:58:36;;;;;;;2.10;2.00;;;;;;;14.10;63.84;100757.80;110112;1279;23166;-51
2023/04/03 04:01:10;;;;;;;2.80;1.80;;;;;;;14.08;63.87;100760.84;110007;1275;22299;-51
2023/04/03 04:03:47;;;;;;;1.90;1.80;;;;;;;14.11;63.71;100757.94;110039;1278;22795;-51
2023/04/03 04:06:19;;;;;;;2.10;1.90;;;;;;;14.07;63.71;100761.39;109980;1272;22313;-51
2023/04/03 04:08:50;;;;;;;1.70;1.60;;;;;;;14.04;63.81;100765.52;110097;1280;23261;-51
2023/04/03 04:11:20;;;;;;;2.00;1.90;;;;;;;14.04;63.86;100769.17;110041;1280;22383;-51
2023/04/03 04:13:49;;;;;;;1.90;1.80;;;;;;;14.04;63.72;100772.66;110107;1272;22171;-51
2023/04/03 04:16:18;;;;;;;1.70;1.50;;;;;;;14.04;63.69;100775.47;110011;1279;22404;-51
2023/04/03 04:18:46;;;;;;;1.70;1.50;;;;;;;14.04;63.79;100775.10;109950;1279;22241;-50
2023/04/03 04:21:15;;;;;;;2.50;2.30;;;;;;;14.05;63.79;100773.34;110043;1274;22434;-50
2023/04/03 04:23:45;;;;;;;1.50;1.40;;;;;;;14.06;63.88;100773.65;110063;1274;22259;-50
2023/04/03 04:26:13;;;;;;;1.50;1.40;;;;;;;14.06;63.68;100774.85;110351;1270;22732;-51
2023/04/03 04:28:43;;;;;;;1.40;1.30;;;;;;;14.07;63.74;100776.40;110280;1276;22283;-51
2023/04/03 04:31:12;;;;;;;1.50;1.40;;;;;;;14.09;63.71;100779.13;110189;1272;22112;-50
2023/04/03 04:33:41;;;;;;;0.90;0.90;;;;;;;14.10;63.67;100778.55;110016;1274;23083;-50
2023/04/03 04:36:10;;;;;;;1.30;1.00;;;;;;;14.12;63.69;100776.38;110040;1270;22822;-50
2023/04/03 04:38:41;;;;;;;;;;;;;;;14.14;63.71;100780.13;110337;1271;22447;-50
2023/04/03 04:41:10;;;;;;;0.90;0.90;;;;;;;14.15;63.62;100778.19;110331;1272;22837;-51
2023/04/03 04:43:38;;;;;;;1.00;1.00;;;;;;;14.15;63.56;100783.59;110362;1277;22396;-50
2023/04/03 04:46:08;;;;;;;1.70;1.40;;;;;;;14.16;63.47;100784.09;110298;1270;23021;-51
2023/04/03 04:48:40;;;;;;;0.80;0.80;;;;;;;14.16;63.49;100790.89;110214;1270;22218;-50
2023/04/03 04:51:12;;;;;;;0.90;0.90;;;;;;;14.17;63.56;100791.91;110280;1271;22191;-52
2023/04/03 04:53:42;;;;;;;1.00;0.90;;;;;;;14.19;63.69;100792.73;110324;1270;22159;-50
2023/04/03 04:56:15;;;;;;;0.70;0.70;;;;;;;14.22;63.62;100788.59;110073;1275;22236;-50
2023/04/03 04:58:44;;;;;;;0.80;0.80;;;;;;;14.23;63.43;100788.52;110099;1273;22501;-50
2023/04/03 05:01:12;;;;;;;0.70;0.70;;;;;;;14.27;63.43;100787.18;110351;1271;22372;-50
2023/04/03 05:04:12;;;;;;;1.60;0.70;;;;;;;14.31;63.48;100791.08;110278;1270;22387;-50
2023/04/03 05:06:41;;;;;;;0.60;0.60;;;;;;;14.35;63.50;100792.84;110213;1275;22171;-50
2023/04/03 05:09:14;;;;;;;0.70;0.70;;;;;;;14.40;63.51;100791.79;110228;1278;22417;-50
2023/04/03 05:11:43;;;;;;;1.50;0.70;;;;;;;14.45;63.27;100793.17;110143;1277;22145;-50
2023/04/03 05:14:12;;;;;;;0.80;0.80;;;;;;;14.47;63.33;100799.38;110264;1278;22363;-50
2023/04/03 05:16:41;;;;;;;0.70;0.70;;;;;;;14.50;63.37;100799.45;110041;1275;23493;-50
2023/04/03 05:19:09;;;;;;;0.80;0.80;;;;;;;14.53;63.48;100799.52;110165;1279;22148;-50
2023/04/03 05:21:38;;;;;;;0.80;0.80;;;;;;;14.56;63.50;100803.04;110120;1273;22167;-50
2023/04/03 05:24:12;;;;;;;1.20;1.10;;;;;;;14.60;63.64;100806.39;110028;1275;22303;-49
2023/04/03 05:26:42;;;;;;;1.10;1.00;;;;;;;14.66;63.79;100806.85;110101;1276;22168;-50
2023/04/03 05:29:11;;;;;;;1.00;0.90;;;;;;;14.72;63.99;100811.02;109380;1279;1002482;-50
2023/04/03 05:31:39;;;;;;;1.00;1.00;;;;;;;14.79;63.76;100808.33;109937;1277;22324;-50
2023/04/03 05:34:09;;;;;;;1.00;1.00;;;;;;;14.82;63.55;100816.56;109971;1279;22423;-50
2023/04/03 05:36:38;;;;;;;1.20;1.10;;;;;;;14.84;63.42;100820.19;110093;1271;22491;-50
2023/04/03 05:39:08;;;;;;;1.00;1.00;;;;;;;14.85;63.39;100820.30;110080;1272;22622;-51
2023/04/03 05:41:39;;;;;;;1.10;1.10;;;;;;;14.86;63.38;100823.59;110070;1279;22291;-50
2023/04/03 05:44:07;;;;;;;1.20;1.10;;;;;;;14.88;63.43;100826.14;110129;1272;22172;-49
2023/04/03 05:46:36;;;;;;;1.30;1.20;;;;;;;14.91;63.46;100827.26;109935;1281;22283;-50
2023/04/03 05:49:06;;;;;;;1.10;1.00;;;;;;;14.95;63.50;100831.10;110008;1274;22175;-50
2023/04/03 05:51:36;;;;;;;1.30;1.20;;;;;;;15.01;63.39;100835.41;110027;1280;23230;-50
2023/04/03 05:54:17;;;;;;;1.70;1.40;;;;;;;15.10;63.29;100839.06;109248;1280;1002995;-49
2023/04/03 05:56:49;;;;;;;1.60;1.50;;;;;;;15.22;63.20;100839.10;110041;1274;22902;-50
2023/04/03 05:59:18;;;;;;;1.30;1.20;;;;;;;15.39;63.11;100843.34;109999;1275;22344;-49
2023/04/03 06:01:48;;;;;;;1.20;1.10;;;;;;;15.60;62.58;100841.08;110023;1274;22155;-50
2023/04/03 06:04:18;;;;;;;0.80;0.80;;;;;;;15.84;62.24;100838.84;110016;1278;22243;-50
2023/04/03 06:06:52;;;;;;;1.00;0.70;;;;;;;16.14;61.36;100844.36;110028;1273;22408;-49
2023/04/03 06:09:23;;;;;;;0.50;0.50;;;;;;;16.50;60.57;100851.41;109944;1280;23051;-50
2023/04/03 06:11:52;;;;;;;0.80;0.80;;;;;;;16.84;59.69;100851.43;110015;1280;22205;-50
2023/04/03 06:14:22;;;;;;;0.70;0.70;;;;;;;17.12;58.48;100850.65;109966;1275;22233;-51
2023/04/03 06:16:59;;;;;;;1.10;0.80;;;;;;;17.29;57.67;100854.73;110022;1279;22392;-49
2023/04/03 06:19:28;;;;;;;1.00;0.90;;;;;;;17.36;57.16;100856.51;110136;1279;22179;-50
2023/04/03 06:21:57;;;;;;;0.80;0.80;;;;;;;17.37;56.64;100861.48;110115;1279;22943;-50
2023/04/03 06:24:26;;;;;;;1.00;1.00;;;;;;;17.34;56.60;100863.59;110031;1279;22145;-49
2023/04/03 06:26:54;;;;;;;0.80;0.80;;;;;;;17.30;56.64;100866.96;110219;1273;22829;-49
2023/04/03 06:29:24;;;;;;;0.70;0.70;;;;;;;17.22;56.38;100867.35;110180;1272;22327;-50
2023/04/03 06:31:52;;;;;;;0.60;0.60;;;;;;;17.13;56.50;100872.84;110193;1272;22313;-50
2023/04/03 06:34:21;;;;;;;0.70;0.70;;;;;;;17.08;56.14;100873.27;110025;1276;22320;-50
2023/04/03 06:36:51;;;;;;;0.60;0.60;;;;;;;16.98;56.52;100880.37;110201;1272;22182;-50
2023/04/03 06:39:22;;;;;;;0.70;0.70;;;;;;;16.95;57.07;100884.21;110029;1276;22225;-50
2023/04/03 06:41:50;;;;;;;1.00;0.90;;;;;;;16.94;57.24;100886.71;110182;1272;22166;-50
2023/04/03 06:44:19;;;;;;;0.80;0.80;;;;;;;16.91;56.89;100889.65;110126;1274;22348;-50
2023/04/03 06:46:48;;;;;;;0.90;0.90;;;;;;;16.86;56.86;100895.15;110186;1279;22177;-50
2023/04/03 06:49:17;;;;;;;0.70;0.70;;;;;;;16.80;56.99;100901.36;110008;1276;22277;-50
2023/04/03 06:51:45;;;;;;;1.10;1.00;;;;;;;16.76;56.78;100903.14;110216;1277;22353;-50
2023/04/03 06:54:14;;;;;;;0.70;0.70;;;;;;;16.69;56.92;100908.88;110339;1272;23026;-50
2023/04/03 06:56:43;;;;;;;0.70;0.70;;;;;;;16.64;57.23;100911.02;110332;1277;22161;-49
2023/04/03 06:59:12;;;;;;;0.60;0.60;;;;;;;16.73;56.85;100913.06;110146;1272;22123;-50
2023/04/03 07:01:41;;;;;;;0.50;0.50;;;;;;;16.82;56.50;100917.39;110194;1272;23331;-49
2023/04/03 07:04:10;;;;;;;1.00;0.70;;;;;;;16.90;55.96;100921.04;110356;1277;22742;-50
2023/04/03 07:06:39;;;;;;;0.60;0.60;;;;;;;16.93;55.54;100921.11;110334;1271;22274;-50
2023/04/03 07:09:08;;;;;;;0.70;0.70;;;;;;;16.90;55.09;100922.27;110327;1274;23007;-49
2023/04/03 07:11:38;;;;;;;1.10;0.80;;;;;;;16.85;55.10;100923.91;110049;1277;22466;-50
2023/04/03 07:14:07;;;;;;;1.00;0.90;;;;;;;16.81;54.98;100926.71;110304;1277;22369;-50
2023/04/03 07:16:36;;;;;;;1.30;1.20;;;;;;;16.78;55.20;100929.52;110324;1270;22276;-49
2023/04/03 07:19:11;;;;;;;1.10;1.00;;;;;;;16.74;55.29;100926.36;110260;1277;22434;-50
2023/04/03 07:21:41;;;;;;;1.20;1.10;;;;;;;16.70;55.13;100927.38;110067;1278;22137;-49
2023/04/03 07:24:10;;;;;;;0.90;0.90;;;;;;;16.60;55.16;100930.63;110112;1274;22136;-49
2023/04/03 07:26:44;;;;;;;0.90;0.90;;;;;;;16.54;55.80;100934.59;110326;1274;22123;-50
2023/04/03 07:29:13;;;;;;;1.10;1.10;;;;;;;16.52;56.12;100930.99;110073;1275;22163;-49
2023/04/03 07:31:42;;;;;;;1.50;1.40;;;;;;;16.50;55.84;100928.27;110289;1277;22113;-50
2023/04/03 07:34:11;;;;;;;1.10;1.10;;;;;;;16.47;55.96;100927.15;110313;1272;22185;-49
2023/04/03 07:36:40;;;;;;;1.30;1.20;;;;;;;16.47;56.23;100931.19;110162;1277;22286;-49
2023/04/03 07:39:08;;;;;;;1.10;1.00;;;;;;;16.52;56.64;100938.35;110314;1275;22242;-50
2023/04/03 07:41:40;;;;;;;2.10;1.40;;;;;;;16.61;56.64;100943.58;110295;1270;23300;-50
2023/04/03 07:44:09;;;;;;;1.20;1.20;;;;;;;16.69;56.55;100952.48;110348;1274;22815;-50
2023/04/03 07:46:38;;;;;;;1.10;1.00;;;;;;;16.76;56.48;100960.41;110281;1277;22237;-50
2023/04/03 07:49:06;;;;;;;1.30;1.20;;;;;;;16.81;56.46;100967.03;110346;1277;22199;-49
2023/04/03 07:51:35;;;;;;;1.30;1.20;;;;;;;16.82;56.02;100974.30;110327;1272;22327;-49
2023/04/03 07:54:04;;;;;;;1.40;1.30;;;;;;;16.80;55.89;100982.30;110164;1277;22429;-50
2023/04/03 07:56:33;;;;;;;1.30;1.20;;;;;;;16.79;55.92;100985.88;110329;1272;22199;-50
2023/04/03 07:59:05;;;;;;;1.10;1.10;;;;;;;16.76;55.81;100993.34;110292;1272;23043;-49
2023/04/03 08:01:33;;;;;;;1.50;1.40;;;;;;;16.73;55.76;100995.75;110350;1278;22747;-49
2023/04/03 08:04:02;;;;;;;1.40;1.30;;;;;;;16.71;55.81;101000.05;109567;1263;1002349;-49
2023/04/03 08:06:34;;;;;;;1.70;1.30;;;;;;;16.69;55.75;101001.71;109956;1278;22180;-50
2023/04/03 08:09:18;;;;;;;1.20;1.10;;;;;;;16.66;55.34;101005.55;110296;1278;22115;-50
2023/04/03 08:11:46;;;;;;;1.30;1.20;;;;;;;16.61;55.19;101007.49;110171;1277;22124;-49
2023/04/03 08:14:16;;;;;;;1.40;1.30;;;;;;;16.56;55.20;101011.41;110351;1271;22120;-49
2023/04/03 08:16:46;;;;;;;2.00;1.50;;;;;;;16.51;55.40;101015.08;110337;1271;22229;-49
2023/04/03 08:19:16;;;;;;;1.90;1.80;;;;;;;16.46;55.42;101017.00;110329;1274;22112;-49
2023/04/03 08:21:54;;;;;;;2.30;1.60;;;;;;;16.42;55.68;101019.84;110329;1271;22364;-50
2023/04/03 08:24:24;;;;;;;2.40;1.50;;;;;;;16.36;55.74;101023.07;110317;1271;22396;-50
2023/04/03 08:26:53;;;;;;;1.60;1.50;;;;;;;16.32;55.90;101024.26;109991;1278;22762;-50
2023/04/03 08:29:21;;;;;;;1.60;1.50;;;;;;;16.29;56.01;101027.19;110306;1272;22844;-49
2023/04/03 08:31:50;;;;;;;1.50;1.40;;;;;;;16.26;56.05;101026.60;110232;1271;23193;-50
2023/04/03 08:34:19;;;;;;;1.50;1.40;;;;;;;16.27;56.48;101033.58;110335;1272;22325;-50
2023/04/03 08:36:50;;;;;;;1.90;1.80;;;;;;;16.28;56.38;101039.45;110338;1278;22124;-50
2023/04/03 08:39:19;;;;;;;1.20;1.20;;;;;;;16.29;56.28;101043.99;110065;1278;22192;-49
2023/04/03 08:41:48;;;;;;;1.50;1.20;;;;;;;16.29;56.31;101049.91;110350;1272;22355;-49
2023/04/03 08:44:26;;;;;;;1.50;1.40;;;;;;;16.32;56.15;101053.86;110306;1274;22126;-50
2023/04/03 08:47:00;;;;;;;1.90;1.50;;;;;;;16.34;56.27;101055.02;110221;1272;23257;-49
2023/04/03 08:49:35;;;;;;;1.70;1.60;;;;;;;16.34;56.40;101052.73;110326;1270;22477;-50
2023/04/03 08:52:08;;;;;;;1.60;1.50;;;;;;;16.35;56.37;101055.52;110038;1277;22467;-49
2023/04/03 08:54:47;;;;;;;1.80;1.70;;;;;;;16.36;56.11;101047.59;110047;1275;22273;-49
2023/04/03 08:57:15;;;;;;;1.80;1.70;;;;;;;16.37;56.24;101044.38;110056;1278;22296;-50
2023/04/03 08:59:44;;;;;;;1.90;1.80;;;;;;;16.42;56.89;101050.29;110339;1272;22381;-50
2023/04/03 09:02:23;;;;;;;2.00;1.90;;;;;;;16.51;57.04;101060.64;110353;1272;22393;-50
2023/04/03 09:04:52;;;;;;;2.40;2.20;;;;;;;16.58;56.67;101063.48;110283;1271;22308;-49
2023/04/03 09:07:36;;;;;;;2.60;2.40;;;;;;;16.62;56.40;101064.71;110182;1278;22309;-49
2023/04/03 09:10:06;;;;;;;2.50;2.30;;;;;;;16.66;56.22;101067.36;110173;1270;22811;-50
2023/04/03 09:12:42;;;;;;;1.90;1.80;;;;;;;16.69;56.12;101075.83;110199;1277;22904;-49
2023/04/03 09:15:17;;;;;;;2.30;2.10;;;;;;;16.70;55.89;101067.18;110217;1277;22139;-50
2023/04/03 09:18:11;;;;;;;2.30;2.10;;;;;;;16.72;55.76;101068.15;110105;1277;23079;-50
2023/04/03 09:20:51;;;;;;;2.80;2.30;;;;;;;16.76;55.63;101069.40;110099;1278;22139;-49
2023/04/03 09:23:23;;;;;;;2.20;2.10;;;;;;;16.79;55.52;101072.56;110318;1277;22224;-50
2023/04/03 09:25:54;;;;;;;2.00;1.90;;;;;;;16.85;55.42;101079.70;110235;1277;22155;-50
2023/04/03 09:28:23;;;;;;;2.20;2.10;;;;;;;16.90;55.23;101082.64;110227;1275;22360;-50
2023/04/03 09:30:51;;;;;;;2.40;2.20;;;;;;;16.95;55.20;101082.05;110335;1275;22293;-49
2023/04/03 09:33:21;;;;;;;2.40;2.20;;;;;;;17.02;55.24;101088.05;110312;1275;22579;-50
2023/04/03 09:35:49;;;;;;;2.60;2.40;;;;;;;17.09;55.18;101090.05;110303;1275;22247;-50
2023/04/03 09:38:20;;;;;;;2.50;2.30;;;;;;;17.15;55.17;101090.80;110226;1273;22315;-49
2023/04/03 09:40:51;;;;;;;2.90;2.60;;;;;;;17.20;55.13;101089.89;110207;1277;22190;-50
2023/04/03 09:43:24;;;;;;;2.80;2.60;;;;;;;17.27;54.87;101098.38;110126;1277;22414;-49
2023/04/03 09:45:53;;;;;;;3.00;2.30;;;;;;;17.33;54.90;101106.49;110312;1278;22378;-50
2023/04/03 09:48:23;;;;;;;2.30;2.10;;;;;;;17.41;54.85;101108.08;110308;1277;22830;-50
2023/04/03 09:51:02;;;;;;;2.30;2.20;;;;;;;17.48;54.08;101110.25;110310;1273;22126;-50
2023/04/03 09:53:38;;;;;;;2.70;2.50;;;;;;;17.50;53.47;101112.79;110287;1276;22737;-49
2023/04/03 09:56:15;;;;;;;3.00;2.80;;;;;;;17.51;53.28;101112.75;110264;1277;22371;-50
2023/04/03 09:58:48;;;;;;;2.50;2.30;;;;;;;17.53;53.31;101116.86;110177;1277;22415;-49
2023/04/03 10:01:27;;;;;;;3.10;2.90;;;;;;;17.56;53.40;101112.67;110212;1278;22410;-50
2023/04/03 10:04:06;;;;;;;2.40;2.30;;;;;;;17.57;53.23;101111.61;110266;1275;22163;-50
2023/04/03 10:06:37;;;;;;;2.80;2.60;;;;;;;17.59;53.52;101117.48;110298;1278;22085;-49
2023/04/03 10:09:21;;;;;;;2.90;2.70;;;;;;;17.63;53.58;101122.89;110340;1271;22429;-49
2023/04/03 10:12:04;;;;;;;2.30;2.20;;;;;;;17.69;53.13;101130.50;110115;1270;22368;-50
2023/04/03 10:14:34;;;;;;;3.00;2.80;;;;;;;17.72;53.17;101141.06;110322;1278;22267;-50
2023/04/03 10:17:21;;;;;;;2.90;2.60;;;;;;;17.73;52.87;101140.86;110318;1275;23063;-49
2023/04/03 10:19:54;;;;;;;3.30;2.70;;;;;;;17.72;52.96;101145.09;110145;1273;22209;-50
2023/04/03 10:22:27;;;;;;;2.40;2.20;;;;;;;17.73;53.14;101145.23;110299;1272;22308;-50
2023/04/03 10:25:13;;;;;;;2.60;2.40;;;;;;;17.74;52.97;101142.90;110320;1273;22173;-49
2023/04/03 10:27:48;;;;;;;2.50;2.30;;;;;;;17.75;52.68;101145.70;110242;1272;22296;-50
2023/04/03 10:30:38;;;;;;;2.50;2.30;;;;;;;17.72;52.34;101149.14;110081;1275;22264;-50
2023/04/03 10:33:13;;;;;;;;;;;;;;;17.66;52.23;101152.95;110352;1278;23327;-49
2023/04/03 10:35:42;;;;;;;2.30;2.10;;;;;;;17.63;52.82;101158.16;110305;1273;22438;-50
2023/04/03 10:38:19;;;;;;;2.10;2.00;;;;;;;17.63;53.09;101167.13;110063;1275;22428;-50
2023/04/03 10:41:00;;;;;;;2.20;1.90;;;;;;;17.62;53.15;101163.09;110321;1275;22125;-50
2023/04/03 10:44:05;;;;;;;2.00;1.90;;;;;;;17.61;53.55;101158.58;110135;1276;22291;-50
2023/04/03 10:46:41;;;;;;;2.00;1.90;;;;;;;17.65;53.46;101155.44;110295;1277;23051;-49
2023/04/03 10:49:28;;;;;;;2.40;2.20;;;;;;;17.76;53.02;101160.53;110340;1273;23224;-50
2023/04/03 10:52:12;;;;;;;2.20;2.00;;;;;;;17.80;53.07;101157.57;110084;1275;22503;-50
2023/04/03 10:55:07;;;;;;;2.40;2.20;;;;;;;17.81;52.97;101161.73;110324;1277;22358;-50
2023/04/03 10:57:35;;;;;;;2.10;1.90;;;;;;;17.80;52.31;101158.95;110019;1278;22301;-50
2023/04/03 11:00:19;;;;;;;2.00;1.90;;;;;;;17.77;52.43;101152.08;110291;1275;22086;-50
2023/04/03 11:03:05;;;;;;;2.10;1.90;;;;;;;17.79;52.67;101149.38;110248;1272;22280;-50
2023/04/03 11:05:39;;;;;;;2.10;1.90;;;;;;;17.80;52.30;101147.71;110214;1277;23083;-49
2023/04/03 11:08:13;;;;;;;2.40;2.20;;;;;;;17.83;52.18;101144.63;110302;1272;22394;-50
2023/04/03 11:10:43;;;;;;;3.70;2.00;;;;;;;17.86;52.28;101140.79;110106;1277;22142;-50
2023/04/03 11:13:22;;;;;;;2.30;2.10;;;;;;;17.87;52.63;101135.81;110228;1271;23038;-49
2023/04/03 11:15:52;;;;;;;2.40;2.20;;;;;;;17.91;52.93;101128.14;110328;1272;22305;-50
2023/04/03 11:18:34;;;;;;;2.10;1.90;;;;;;;17.95;52.45;101123.73;110327;1278;22098;-49
2023/04/03 11:21:21;;;;;;;3.30;3.00;;;;;;;17.91;52.11;101122.52;110106;1274;22318;-50
2023/04/03 11:23:49;;;;;;;3.70;3.40;;;;;;;17.76;51.54;101118.42;110062;1275;22289;-50
2023/04/03 11:26:20;;;;;;;3.40;3.20;;;;;;;17.64;51.74;101118.28;110248;1272;22401;-50
2023/04/03 11:28:53;;;;;;;3.90;3.60;;;;;;;17.47;51.57;101117.99;110319;1272;22055;-49
2023/04/03 11:31:40;;;;;;;4.20;3.90;;;;;;;17.23;52.10;101115.16;110310;1278;22336;-49
2023/04/03 11:34:15;;;;;;;4.20;3.90;;;;;;;17.05;52.56;101113.71;110178;1277;22608;-50
2023/04/03 11:36:48;;;;;;;4.50;4.20;;;;;;;16.90;53.08;101114.69;110300;1275;22144;-50
2023/04/03 11:39:22;;;;;;;4.80;4.50;;;;;;;16.70;53.52;101120.95;110010;1276;22431;-50